LFBI 181700Z AUTO 29009KT 260V330 CAVOK 26/11 Q1015 NOSIG

ElémentsDécodage
LFBI Station météo située sur l'aérodrome de POITIERS Biard
181700Z émis le 18 du mois à 17h00 UTC
AUTO Bulletin édité par un automate
29009KT vent du 290°, 09 noeuds
260V330 vent de direction variable entre 260° et 330°
CAVOK Ceiling And Visibility OK
- Visibilité de 10 Km ou plus
- Pas de nuage au-dessous de 1500m ou au-dessous de l'altitude minimale du secteur la plus élevée (si>1500m) et absence de CB
- pas de temps présent significatif
26/11 température 26°C, point de rosée 11°C
 soit une humidité relative de 39%
Q1015 la pression au niveau de la mer (QNH) est de 1015 hPa
NOSIG Pas de changement significatif prévu au cours des deux heures suivant l'heure de l'observation